Terminal Aerodrome Forecast
Issued by NWS Jackson, KY

Home | Current Version | Previous Version | Text Only | Print | Product List | Glossary On
Versions: 1 2 3 4 5 6 7 8 9 10 11 12 13 14 15 16
000
FTUS43 KJKL 171251 AAA
TAFJKL
TAF AMD
KJKL 171251Z 1713/1812 05003KT 5SM BR BKN004 OVC020
     FM171600 VRB03KT 6SM -RA OVC015
     FM171800 VRB03KT 2SM RA OVC003
     FM180400 VRB03KT P6SM OVC007=

USA.gov is the U.S. government's official web portal to all federal, state and local government web resources and services.